sensor_id;sensor_type;location;lat;lon;timestamp;P1;durP1;ratioP1;P2;durP2;ratioP2
40256;SDS011;25977;45.462;9.210;2023-11-22T00:00:06;23.33;;;11.00;;
40256;SDS011;25977;45.462;9.210;2023-11-22T00:02:36;19.70;;;11.68;;
40256;SDS011;25977;45.462;9.210;2023-11-22T00:05:02;16.63;;;9.85;;
40256;SDS011;25977;45.462;9.210;2023-11-22T00:07:30;15.85;;;10.48;;
40256;SDS011;25977;45.462;9.210;2023-11-22T00:09:56;18.02;;;10.77;;
40256;SDS011;25977;45.462;9.210;2023-11-22T00:12:22;18.23;;;11.18;;
40256;SDS011;25977;45.462;9.210;2023-11-22T00:14:51;14.68;;;10.48;;
40256;SDS011;25977;45.462;9.210;2023-11-22T00:17:17;18.75;;;10.10;;
40256;SDS011;25977;45.462;9.210;2023-11-22T00:19:43;19.73;;;12.10;;
40256;SDS011;25977;45.462;9.210;2023-11-22T00:22:10;20.23;;;10.98;;
40256;SDS011;25977;45.462;9.210;2023-11-22T00:24:40;13.80;;;9.40;;
40256;SDS011;25977;45.462;9.210;2023-11-22T00:27:06;18.95;;;10.10;;
40256;SDS011;25977;45.462;9.210;2023-11-22T00:29:32;20.25;;;10.55;;
40256;SDS011;25977;45.462;9.210;2023-11-22T00:31:58;15.13;;;9.45;;
40256;SDS011;25977;45.462;9.210;2023-11-22T00:34:25;13.57;;;9.55;;
40256;SDS011;25977;45.462;9.210;2023-11-22T00:36:51;17.45;;;10.27;;
40256;SDS011;25977;45.462;9.210;2023-11-22T00:39:18;15.05;;;8.80;;
40256;SDS011;25977;45.462;9.210;2023-11-22T00:41:44;14.82;;;9.35;;
40256;SDS011;25977;45.462;9.210;2023-11-22T00:44:10;14.27;;;8.85;;
40256;SDS011;25977;45.462;9.210;2023-11-22T00:46:37;19.60;;;9.10;;
40256;SDS011;25977;45.462;9.210;2023-11-22T00:49:03;13.85;;;8.98;;
40256;SDS011;25977;45.462;9.210;2023-11-22T00:51:33;12.07;;;9.18;;
40256;SDS011;25977;45.462;9.210;2023-11-22T00:53:59;15.55;;;9.00;;
40256;SDS011;25977;45.462;9.210;2023-11-22T00:56:26;13.25;;;8.75;;
40256;SDS011;25977;45.462;9.210;2023-11-22T00:58:52;15.40;;;9.15;;
40256;SDS011;25977;45.462;9.210;2023-11-22T01:01:21;9.52;;;8.00;;
40256;SDS011;25977;45.462;9.210;2023-11-22T01:03:47;12.35;;;8.90;;
40256;SDS011;25977;45.462;9.210;2023-11-22T01:06:13;13.18;;;8.57;;
40256;SDS011;25977;45.462;9.210;2023-11-22T01:08:39;12.68;;;9.32;;
40256;SDS011;25977;45.462;9.210;2023-11-22T01:11:05;13.15;;;9.38;;
40256;SDS011;25977;45.462;9.210;2023-11-22T01:13:32;13.57;;;9.20;;
40256;SDS011;25977;45.462;9.210;2023-11-22T01:16:05;12.00;;;8.50;;
40256;SDS011;25977;45.462;9.210;2023-11-22T01:18:31;11.68;;;8.13;;
40256;SDS011;25977;45.462;9.210;2023-11-22T01:21:00;12.38;;;9.50;;
40256;SDS011;25977;45.462;9.210;2023-11-22T01:23:29;9.73;;;7.95;;
40256;SDS011;25977;45.462;9.210;2023-11-22T01:25:57;13.00;;;7.93;;
40256;SDS011;25977;45.462;9.210;2023-11-22T01:28:23;12.77;;;7.93;;
40256;SDS011;25977;45.462;9.210;2023-11-22T01:30:50;15.15;;;8.52;;
40256;SDS011;25977;45.462;9.210;2023-11-22T01:33:15;12.35;;;8.13;;
40256;SDS011;25977;45.462;9.210;2023-11-22T01:35:41;13.02;;;8.20;;
40256;SDS011;25977;45.462;9.210;2023-11-22T01:38:07;17.85;;;7.90;;
40256;SDS011;25977;45.462;9.210;2023-11-22T01:40:34;13.25;;;8.10;;
40256;SDS011;25977;45.462;9.210;2023-11-22T01:43:08;14.70;;;8.57;;
40256;SDS011;25977;45.462;9.210;2023-11-22T01:45:34;14.60;;;7.68;;
40256;SDS011;25977;45.462;9.210;2023-11-22T01:48:00;11.02;;;8.07;;
40256;SDS011;25977;45.462;9.210;2023-11-22T01:50:26;9.50;;;7.45;;
40256;SDS011;25977;45.462;9.210;2023-11-22T01:52:52;13.07;;;8.23;;
40256;SDS011;25977;45.462;9.210;2023-11-22T01:55:18;14.23;;;8.10;;
40256;SDS011;25977;45.462;9.210;2023-11-22T01:57:45;10.55;;;8.23;;
40256;SDS011;25977;45.462;9.210;2023-11-22T02:00:11;10.73;;;7.70;;
40256;SDS011;25977;45.462;9.210;2023-11-22T02:02:40;12.27;;;7.57;;
40256;SDS011;25977;45.462;9.210;2023-11-22T02:05:07;12.75;;;7.95;;
40256;SDS011;25977;45.462;9.210;2023-11-22T02:07:33;11.30;;;7.70;;
40256;SDS011;25977;45.462;9.210;2023-11-22T02:09:59;10.35;;;7.00;;
40256;SDS011;25977;45.462;9.210;2023-11-22T02:12:31;8.32;;;7.45;;
40256;SDS011;25977;45.462;9.210;2023-11-22T02:14:58;10.75;;;7.78;;
40256;SDS011;25977;45.462;9.210;2023-11-22T02:17:24;18.10;;;8.38;;
40256;SDS011;25977;45.462;9.210;2023-11-22T02:19:51;10.10;;;7.55;;
40256;SDS011;25977;45.462;9.210;2023-11-22T02:22:18;10.93;;;7.13;;
40256;SDS011;25977;45.462;9.210;2023-11-22T02:24:43;12.50;;;7.90;;
40256;SDS011;25977;45.462;9.210;2023-11-22T02:27:09;8.80;;;7.18;;
40256;SDS011;25977;45.462;9.210;2023-11-22T02:29:36;10.57;;;7.43;;
40256;SDS011;25977;45.462;9.210;2023-11-22T02:32:02;15.75;;;8.85;;
40256;SDS011;25977;45.462;9.210;2023-11-22T02:34:30;13.52;;;8.05;;
40256;SDS011;25977;45.462;9.210;2023-11-22T02:36:56;11.40;;;7.55;;
40256;SDS011;25977;45.462;9.210;2023-11-22T02:39:24;10.23;;;7.65;;
40256;SDS011;25977;45.462;9.210;2023-11-22T02:41:54;9.45;;;7.43;;
40256;SDS011;25977;45.462;9.210;2023-11-22T02:44:20;9.65;;;7.60;;
40256;SDS011;25977;45.462;9.210;2023-11-22T02:46:46;14.68;;;8.93;;
40256;SDS011;25977;45.462;9.210;2023-11-22T02:49:12;26.45;;;8.60;;
40256;SDS011;25977;45.462;9.210;2023-11-22T02:51:38;14.82;;;8.95;;
40256;SDS011;25977;45.462;9.210;2023-11-22T02:54:04;13.82;;;7.55;;
40256;SDS011;25977;45.462;9.210;2023-11-22T02:56:30;12.48;;;8.38;;
40256;SDS011;25977;45.462;9.210;2023-11-22T02:58:56;13.48;;;9.25;;
40256;SDS011;25977;45.462;9.210;2023-11-22T03:01:22;15.52;;;8.23;;
40256;SDS011;25977;45.462;9.210;2023-11-22T03:03:48;14.15;;;8.40;;
40256;SDS011;25977;45.462;9.210;2023-11-22T03:06:14;14.05;;;7.70;;
40256;SDS011;25977;45.462;9.210;2023-11-22T03:08:40;17.05;;;7.68;;
40256;SDS011;25977;45.462;9.210;2023-11-22T03:11:05;14.30;;;8.18;;
40256;SDS011;25977;45.462;9.210;2023-11-22T03:13:32;9.48;;;7.20;;
40256;SDS011;25977;45.462;9.210;2023-11-22T03:15:58;9.98;;;7.65;;
40256;SDS011;25977;45.462;9.210;2023-11-22T03:18:24;15.43;;;7.72;;
40256;SDS011;25977;45.462;9.210;2023-11-22T03:20:51;10.98;;;7.50;;
40256;SDS011;25977;45.462;9.210;2023-11-22T03:23:19;14.90;;;8.60;;
40256;SDS011;25977;45.462;9.210;2023-11-22T03:25:45;13.13;;;8.05;;
40256;SDS011;25977;45.462;9.210;2023-11-22T03:28:12;14.20;;;8.18;;
40256;SDS011;25977;45.462;9.210;2023-11-22T03:30:39;18.45;;;7.53;;
40256;SDS011;25977;45.462;9.210;2023-11-22T03:33:05;11.20;;;7.90;;
40256;SDS011;25977;45.462;9.210;2023-11-22T03:35:31;11.73;;;7.95;;
40256;SDS011;25977;45.462;9.210;2023-11-22T03:37:57;13.43;;;9.10;;
40256;SDS011;25977;45.462;9.210;2023-11-22T03:40:23;11.88;;;8.20;;
40256;SDS011;25977;45.462;9.210;2023-11-22T03:42:48;10.82;;;6.90;;
40256;SDS011;25977;45.462;9.210;2023-11-22T03:45:14;13.98;;;8.20;;
40256;SDS011;25977;45.462;9.210;2023-11-22T03:47:40;17.38;;;8.60;;
40256;SDS011;25977;45.462;9.210;2023-11-22T03:50:06;11.07;;;7.97;;
40256;SDS011;25977;45.462;9.210;2023-11-22T03:52:32;14.90;;;9.57;;
40256;SDS011;25977;45.462;9.210;2023-11-22T03:54:58;13.73;;;9.10;;
40256;SDS011;25977;45.462;9.210;2023-11-22T03:57:23;12.98;;;8.73;;
40256;SDS011;25977;45.462;9.210;2023-11-22T03:59:49;19.67;;;9.52;;
40256;SDS011;25977;45.462;9.210;2023-11-22T04:02:15;13.07;;;9.52;;
40256;SDS011;25977;45.462;9.210;2023-11-22T04:04:41;13.02;;;9.68;;
40256;SDS011;25977;45.462;9.210;2023-11-22T04:07:07;14.60;;;9.35;;
40256;SDS011;25977;45.462;9.210;2023-11-22T04:09:34;13.43;;;9.85;;
40256;SDS011;25977;45.462;9.210;2023-11-22T04:11:59;13.40;;;9.15;;
40256;SDS011;25977;45.462;9.210;2023-11-22T04:14:25;16.73;;;9.35;;
40256;SDS011;25977;45.462;9.210;2023-11-22T04:16:52;14.50;;;9.55;;
40256;SDS011;25977;45.462;9.210;2023-11-22T04:19:18;17.63;;;9.90;;
40256;SDS011;25977;45.462;9.210;2023-11-22T04:21:44;14.70;;;10.25;;
40256;SDS011;25977;45.462;9.210;2023-11-22T04:24:10;19.65;;;11.77;;
40256;SDS011;25977;45.462;9.210;2023-11-22T04:26:37;21.77;;;11.30;;
40256;SDS011;25977;45.462;9.210;2023-11-22T04:29:03;17.98;;;12.65;;
40256;SDS011;25977;45.462;9.210;2023-11-22T04:31:29;19.92;;;11.35;;
40256;SDS011;25977;45.462;9.210;2023-11-22T04:33:55;22.38;;;11.55;;
40256;SDS011;25977;45.462;9.210;2023-11-22T04:36:23;16.55;;;11.77;;
40256;SDS011;25977;45.462;9.210;2023-11-22T04:38:48;21.17;;;11.50;;
40256;SDS011;25977;45.462;9.210;2023-11-22T04:41:15;14.48;;;9.80;;
40256;SDS011;25977;45.462;9.210;2023-11-22T04:43:41;16.33;;;10.40;;
40256;SDS011;25977;45.462;9.210;2023-11-22T04:46:07;13.68;;;10.48;;
40256;SDS011;25977;45.462;9.210;2023-11-22T04:48:33;14.75;;;10.93;;
40256;SDS011;25977;45.462;9.210;2023-11-22T04:50:59;14.68;;;10.23;;
40256;SDS011;25977;45.462;9.210;2023-11-22T04:53:25;14.40;;;10.10;;
40256;SDS011;25977;45.462;9.210;2023-11-22T04:55:52;19.80;;;12.43;;
40256;SDS011;25977;45.462;9.210;2023-11-22T04:58:17;17.50;;;10.85;;
40256;SDS011;25977;45.462;9.210;2023-11-22T05:00:43;20.55;;;12.52;;
40256;SDS011;25977;45.462;9.210;2023-11-22T05:03:10;17.50;;;10.48;;
40256;SDS011;25977;45.462;9.210;2023-11-22T05:05:36;18.17;;;11.13;;
40256;SDS011;25977;45.462;9.210;2023-11-22T05:08:02;23.20;;;12.13;;
40256;SDS011;25977;45.462;9.210;2023-11-22T05:10:28;25.38;;;13.98;;
40256;SDS011;25977;45.462;9.210;2023-11-22T05:12:53;17.52;;;11.52;;
40256;SDS011;25977;45.462;9.210;2023-11-22T05:15:24;17.50;;;10.95;;
40256;SDS011;25977;45.462;9.210;2023-11-22T05:17:50;18.23;;;12.30;;
40256;SDS011;25977;45.462;9.210;2023-11-22T05:20:16;19.60;;;11.52;;
40256;SDS011;25977;45.462;9.210;2023-11-22T05:22:42;16.67;;;11.38;;
40256;SDS011;25977;45.462;9.210;2023-11-22T05:25:08;15.45;;;11.13;;
40256;SDS011;25977;45.462;9.210;2023-11-22T05:27:33;16.98;;;11.57;;
40256;SDS011;25977;45.462;9.210;2023-11-22T05:29:59;23.23;;;11.85;;
40256;SDS011;25977;45.462;9.210;2023-11-22T05:32:26;22.00;;;12.20;;
40256;SDS011;25977;45.462;9.210;2023-11-22T05:34:52;17.40;;;11.93;;
40256;SDS011;25977;45.462;9.210;2023-11-22T05:37:18;21.45;;;11.98;;
40256;SDS011;25977;45.462;9.210;2023-11-22T05:39:44;21.60;;;12.98;;
40256;SDS011;25977;45.462;9.210;2023-11-22T05:42:10;20.95;;;10.50;;
40256;SDS011;25977;45.462;9.210;2023-11-22T05:44:36;20.98;;;11.88;;
40256;SDS011;25977;45.462;9.210;2023-11-22T05:47:02;18.88;;;11.35;;
40256;SDS011;25977;45.462;9.210;2023-11-22T05:49:28;15.57;;;11.25;;
40256;SDS011;25977;45.462;9.210;2023-11-22T05:51:53;16.60;;;11.52;;
40256;SDS011;25977;45.462;9.210;2023-11-22T05:54:19;18.08;;;11.10;;
40256;SDS011;25977;45.462;9.210;2023-11-22T05:56:45;19.08;;;11.02;;
40256;SDS011;25977;45.462;9.210;2023-11-22T05:59:10;20.02;;;11.20;;
40256;SDS011;25977;45.462;9.210;2023-11-22T06:01:36;17.83;;;10.93;;
40256;SDS011;25977;45.462;9.210;2023-11-22T06:04:02;19.67;;;10.88;;
40256;SDS011;25977;45.462;9.210;2023-11-22T06:06:28;16.35;;;11.13;;
40256;SDS011;25977;45.462;9.210;2023-11-22T06:08:53;19.98;;;10.88;;
40256;SDS011;25977;45.462;9.210;2023-11-22T06:11:19;16.98;;;10.00;;
40256;SDS011;25977;45.462;9.210;2023-11-22T06:13:46;18.67;;;11.77;;
40256;SDS011;25977;45.462;9.210;2023-11-22T06:16:12;15.93;;;10.52;;
40256;SDS011;25977;45.462;9.210;2023-11-22T06:18:38;17.45;;;11.35;;
40256;SDS011;25977;45.462;9.210;2023-11-22T06:21:05;21.08;;;11.05;;
40256;SDS011;25977;45.462;9.210;2023-11-22T06:23:32;16.23;;;11.23;;
40256;SDS011;25977;45.462;9.210;2023-11-22T06:25:58;17.75;;;11.43;;
40256;SDS011;25977;45.462;9.210;2023-11-22T06:28:23;15.73;;;10.93;;
40256;SDS011;25977;45.462;9.210;2023-11-22T06:30:49;20.77;;;11.10;;
40256;SDS011;25977;45.462;9.210;2023-11-22T06:33:15;13.65;;;11.27;;
40256;SDS011;25977;45.462;9.210;2023-11-22T06:35:41;15.30;;;10.68;;
40256;SDS011;25977;45.462;9.210;2023-11-22T06:38:07;14.63;;;10.77;;
40256;SDS011;25977;45.462;9.210;2023-11-22T06:40:33;17.40;;;10.65;;
40256;SDS011;25977;45.462;9.210;2023-11-22T06:42:59;13.10;;;9.82;;
40256;SDS011;25977;45.462;9.210;2023-11-22T06:45:25;17.25;;;9.05;;
40256;SDS011;25977;45.462;9.210;2023-11-22T06:47:50;13.50;;;9.75;;
40256;SDS011;25977;45.462;9.210;2023-11-22T06:50:16;18.02;;;10.13;;
40256;SDS011;25977;45.462;9.210;2023-11-22T06:52:42;18.48;;;10.35;;
40256;SDS011;25977;45.462;9.210;2023-11-22T06:55:08;36.72;;;9.85;;
40256;SDS011;25977;45.462;9.210;2023-11-22T06:57:35;12.35;;;9.45;;
40256;SDS011;25977;45.462;9.210;2023-11-22T07:00:02;23.85;;;9.93;;
40256;SDS011;25977;45.462;9.210;2023-11-22T07:02:30;17.70;;;10.73;;
40256;SDS011;25977;45.462;9.210;2023-11-22T07:04:56;18.73;;;11.40;;
40256;SDS011;25977;45.462;9.210;2023-11-22T07:07:24;14.40;;;10.57;;
40256;SDS011;25977;45.462;9.210;2023-11-22T07:09:50;17.88;;;11.70;;
40256;SDS011;25977;45.462;9.210;2023-11-22T07:12:16;16.58;;;10.48;;
40256;SDS011;25977;45.462;9.210;2023-11-22T07:14:42;13.63;;;9.30;;
40256;SDS011;25977;45.462;9.210;2023-11-22T07:17:08;14.27;;;8.32;;
40256;SDS011;25977;45.462;9.210;2023-11-22T07:19:35;20.10;;;8.82;;
40256;SDS011;25977;45.462;9.210;2023-11-22T07:22:05;14.32;;;8.48;;
40256;SDS011;25977;45.462;9.210;2023-11-22T07:24:44;15.30;;;8.75;;
40256;SDS011;25977;45.462;9.210;2023-11-22T07:27:11;12.63;;;8.55;;
40256;SDS011;25977;45.462;9.210;2023-11-22T07:29:40;17.17;;;9.50;;
40256;SDS011;25977;45.462;9.210;2023-11-22T07:32:07;14.25;;;8.63;;
40256;SDS011;25977;45.462;9.210;2023-11-22T07:34:37;17.73;;;9.82;;
40256;SDS011;25977;45.462;9.210;2023-11-22T07:37:04;15.30;;;7.70;;
40256;SDS011;25977;45.462;9.210;2023-11-22T07:39:32;17.27;;;8.77;;
40256;SDS011;25977;45.462;9.210;2023-11-22T07:42:00;17.10;;;9.20;;
40256;SDS011;25977;45.462;9.210;2023-11-22T07:44:26;17.38;;;8.68;;
40256;SDS011;25977;45.462;9.210;2023-11-22T07:46:52;10.88;;;7.45;;
40256;SDS011;25977;45.462;9.210;2023-11-22T07:49:22;13.65;;;6.95;;
40256;SDS011;25977;45.462;9.210;2023-11-22T07:51:47;11.73;;;7.53;;
40256;SDS011;25977;45.462;9.210;2023-11-22T07:54:18;13.30;;;8.00;;
40256;SDS011;25977;45.462;9.210;2023-11-22T07:56:44;12.65;;;7.40;;
40256;SDS011;25977;45.462;9.210;2023-11-22T07:59:10;14.02;;;7.90;;
40256;SDS011;25977;45.462;9.210;2023-11-22T08:01:38;18.98;;;7.63;;
40256;SDS011;25977;45.462;9.210;2023-11-22T08:04:08;16.52;;;8.15;;
40256;SDS011;25977;45.462;9.210;2023-11-22T08:06:34;9.82;;;7.32;;
40256;SDS011;25977;45.462;9.210;2023-11-22T08:09:01;12.43;;;7.85;;
40256;SDS011;25977;45.462;9.210;2023-11-22T08:11:27;9.80;;;7.65;;
40256;SDS011;25977;45.462;9.210;2023-11-22T08:13:53;15.35;;;7.53;;
40256;SDS011;25977;45.462;9.210;2023-11-22T08:16:22;18.60;;;6.88;;
40256;SDS011;25977;45.462;9.210;2023-11-22T08:18:48;13.38;;;7.65;;
40256;SDS011;25977;45.462;9.210;2023-11-22T08:21:15;10.90;;;6.78;;
40256;SDS011;25977;45.462;9.210;2023-11-22T08:23:41;11.55;;;7.60;;
40256;SDS011;25977;45.462;9.210;2023-11-22T08:26:06;12.45;;;7.07;;
40256;SDS011;25977;45.462;9.210;2023-11-22T08:28:33;10.07;;;6.30;;
40256;SDS011;25977;45.462;9.210;2023-11-22T08:31:00;10.07;;;6.18;;
40256;SDS011;25977;45.462;9.210;2023-11-22T08:33:26;15.73;;;7.03;;
40256;SDS011;25977;45.462;9.210;2023-11-22T08:35:51;15.88;;;7.85;;
40256;SDS011;25977;45.462;9.210;2023-11-22T08:38:23;7.75;;;6.85;;
40256;SDS011;25977;45.462;9.210;2023-11-22T08:40:51;9.88;;;7.57;;
40256;SDS011;25977;45.462;9.210;2023-11-22T08:43:17;13.93;;;6.30;;
40256;SDS011;25977;45.462;9.210;2023-11-22T08:45:48;12.25;;;7.18;;
40256;SDS011;25977;45.462;9.210;2023-11-22T08:48:14;10.75;;;8.32;;
40256;SDS011;25977;45.462;9.210;2023-11-22T08:50:40;17.67;;;7.15;;
40256;SDS011;25977;45.462;9.210;2023-11-22T08:53:06;10.57;;;6.72;;
40256;SDS011;25977;45.462;9.210;2023-11-22T08:55:33;10.07;;;7.38;;
40256;SDS011;25977;45.462;9.210;2023-11-22T08:57:59;10.65;;;7.22;;
40256;SDS011;25977;45.462;9.210;2023-11-22T09:00:25;12.57;;;7.55;;
40256;SDS011;25977;45.462;9.210;2023-11-22T09:02:53;11.50;;;7.18;;
40256;SDS011;25977;45.462;9.210;2023-11-22T09:05:22;8.20;;;6.32;;
40256;SDS011;25977;45.462;9.210;2023-11-22T09:07:48;12.40;;;6.68;;
40256;SDS011;25977;45.462;9.210;2023-11-22T09:10:16;15.30;;;7.80;;
40256;SDS011;25977;45.462;9.210;2023-11-22T09:12:43;12.95;;;7.50;;
40256;SDS011;25977;45.462;9.210;2023-11-22T09:15:10;13.85;;;7.15;;
40256;SDS011;25977;45.462;9.210;2023-11-22T09:17:37;9.85;;;6.40;;
40256;SDS011;25977;45.462;9.210;2023-11-22T09:20:08;8.70;;;6.35;;
40256;SDS011;25977;45.462;9.210;2023-11-22T09:22:37;7.80;;;5.95;;
40256;SDS011;25977;45.462;9.210;2023-11-22T09:25:13;11.02;;;5.75;;
40256;SDS011;25977;45.462;9.210;2023-11-22T09:27:41;7.80;;;5.60;;
40256;SDS011;25977;45.462;9.210;2023-11-22T09:30:08;10.80;;;6.75;;
40256;SDS011;25977;45.462;9.210;2023-11-22T09:32:43;6.60;;;5.57;;
40256;SDS011;25977;45.462;9.210;2023-11-22T09:35:11;6.78;;;4.35;;
40256;SDS011;25977;45.462;9.210;2023-11-22T09:37:39;8.70;;;6.25;;
40256;SDS011;25977;45.462;9.210;2023-11-22T09:40:07;6.30;;;4.93;;
40256;SDS011;25977;45.462;9.210;2023-11-22T09:42:34;11.25;;;5.03;;
40256;SDS011;25977;45.462;9.210;2023-11-22T09:45:00;17.27;;;5.85;;
40256;SDS011;25977;45.462;9.210;2023-11-22T09:47:28;8.98;;;5.55;;
40256;SDS011;25977;45.462;9.210;2023-11-22T09:49:57;7.28;;;4.82;;
40256;SDS011;25977;45.462;9.210;2023-11-22T09:52:25;7.38;;;6.10;;
40256;SDS011;25977;45.462;9.210;2023-11-22T09:54:54;7.68;;;4.72;;
40256;SDS011;25977;45.462;9.210;2023-11-22T09:57:20;5.40;;;4.93;;
40256;SDS011;25977;45.462;9.210;2023-11-22T09:59:48;5.60;;;4.93;;
40256;SDS011;25977;45.462;9.210;2023-11-22T10:02:17;8.50;;;5.10;;
40256;SDS011;25977;45.462;9.210;2023-11-22T10:04:43;9.73;;;6.28;;
40256;SDS011;25977;45.462;9.210;2023-11-22T10:07:10;16.27;;;5.88;;
40256;SDS011;25977;45.462;9.210;2023-11-22T10:09:36;9.85;;;6.18;;
40256;SDS011;25977;45.462;9.210;2023-11-22T10:12:03;6.50;;;5.20;;
40256;SDS011;25977;45.462;9.210;2023-11-22T10:14:30;11.43;;;4.97;;
40256;SDS011;25977;45.462;9.210;2023-11-22T10:17:02;6.60;;;4.97;;
40256;SDS011;25977;45.462;9.210;2023-11-22T10:19:28;6.13;;;4.32;;
40256;SDS011;25977;45.462;9.210;2023-11-22T10:22:07;6.72;;;4.65;;
40256;SDS011;25977;45.462;9.210;2023-11-22T10:24:33;6.32;;;4.57;;
40256;SDS011;25977;45.462;9.210;2023-11-22T10:27:00;11.40;;;4.47;;
40256;SDS011;25977;45.462;9.210;2023-11-22T10:29:28;6.43;;;3.60;;
40256;SDS011;25977;45.462;9.210;2023-11-22T10:31:54;5.22;;;3.38;;
40256;SDS011;25977;45.462;9.210;2023-11-22T10:34:21;3.53;;;3.15;;
40256;SDS011;25977;45.462;9.210;2023-11-22T10:36:47;7.53;;;3.03;;
40256;SDS011;25977;45.462;9.210;2023-11-22T10:39:18;7.03;;;3.97;;
40256;SDS011;25977;45.462;9.210;2023-11-22T10:41:45;4.78;;;3.95;;
40256;SDS011;25977;45.462;9.210;2023-11-22T10:44:11;5.03;;;3.97;;
40256;SDS011;25977;45.462;9.210;2023-11-22T10:46:37;8.10;;;4.00;;
40256;SDS011;25977;45.462;9.210;2023-11-22T10:49:05;4.10;;;3.65;;
40256;SDS011;25977;45.462;9.210;2023-11-22T10:51:31;30.30;;;5.32;;
40256;SDS011;25977;45.462;9.210;2023-11-22T10:53:58;6.72;;;4.10;;
40256;SDS011;25977;45.462;9.210;2023-11-22T10:56:28;3.28;;;3.08;;
40256;SDS011;25977;45.462;9.210;2023-11-22T10:59:12;4.55;;;3.17;;
40256;SDS011;25977;45.462;9.210;2023-11-22T11:01:41;2.55;;;2.35;;
40256;SDS011;25977;45.462;9.210;2023-11-22T11:04:23;4.55;;;2.28;;
40256;SDS011;25977;45.462;9.210;2023-11-22T11:06:54;5.07;;;2.72;;
40256;SDS011;25977;45.462;9.210;2023-11-22T11:09:27;5.00;;;2.65;;
40256;SDS011;25977;45.462;9.210;2023-11-22T11:11:57;3.28;;;2.97;;
40256;SDS011;25977;45.462;9.210;2023-11-22T11:14:24;8.07;;;3.20;;
40256;SDS011;25977;45.462;9.210;2023-11-22T11:16:51;9.82;;;4.07;;
40256;SDS011;25977;45.462;9.210;2023-11-22T11:19:19;3.17;;;2.97;;
40256;SDS011;25977;45.462;9.210;2023-11-22T11:21:50;6.47;;;3.70;;
40256;SDS011;25977;45.462;9.210;2023-11-22T11:24:16;4.35;;;3.03;;
40256;SDS011;25977;45.462;9.210;2023-11-22T11:26:49;5.90;;;2.70;;
40256;SDS011;25977;45.462;9.210;2023-11-22T11:29:35;6.05;;;2.67;;
40256;SDS011;25977;45.462;9.210;2023-11-22T11:32:09;2.70;;;2.50;;
40256;SDS011;25977;45.462;9.210;2023-11-22T11:34:48;7.22;;;3.33;;
40256;SDS011;25977;45.462;9.210;2023-11-22T11:37:14;6.20;;;3.35;;
40256;SDS011;25977;45.462;9.210;2023-11-22T11:39:43;4.38;;;3.22;;
40256;SDS011;25977;45.462;9.210;2023-11-22T11:42:12;4.97;;;3.15;;
40256;SDS011;25977;45.462;9.210;2023-11-22T11:44:50;7.45;;;3.38;;
40256;SDS011;25977;45.462;9.210;2023-11-22T11:47:27;3.65;;;3.17;;
40256;SDS011;25977;45.462;9.210;2023-11-22T11:49:54;2.83;;;2.50;;
40256;SDS011;25977;45.462;9.210;2023-11-22T11:52:21;3.17;;;2.67;;
40256;SDS011;25977;45.462;9.210;2023-11-22T11:54:46;2.85;;;2.60;;
40256;SDS011;25977;45.462;9.210;2023-11-22T11:57:12;5.15;;;2.40;;
40256;SDS011;25977;45.462;9.210;2023-11-22T11:59:38;2.05;;;1.95;;
40256;SDS011;25977;45.462;9.210;2023-11-22T12:02:04;2.20;;;2.00;;
40256;SDS011;25977;45.462;9.210;2023-11-22T12:04:31;3.92;;;2.35;;
40256;SDS011;25977;45.462;9.210;2023-11-22T12:06:58;3.70;;;2.10;;
40256;SDS011;25977;45.462;9.210;2023-11-22T12:09:24;2.47;;;2.30;;
40256;SDS011;25977;45.462;9.210;2023-11-22T12:11:50;3.15;;;2.85;;
40256;SDS011;25977;45.462;9.210;2023-11-22T12:14:19;3.08;;;2.33;;
40256;SDS011;25977;45.462;9.210;2023-11-22T12:16:53;3.42;;;2.15;;
40256;SDS011;25977;45.462;9.210;2023-11-22T12:19:23;3.58;;;3.20;;
40256;SDS011;25977;45.462;9.210;2023-11-22T12:21:51;3.60;;;2.50;;
40256;SDS011;25977;45.462;9.210;2023-11-22T12:24:17;2.65;;;2.45;;
40256;SDS011;25977;45.462;9.210;2023-11-22T12:26:46;3.33;;;3.03;;
40256;SDS011;25977;45.462;9.210;2023-11-22T12:29:15;3.40;;;2.43;;
40256;SDS011;25977;45.462;9.210;2023-11-22T12:31:44;2.83;;;2.60;;
40256;SDS011;25977;45.462;9.210;2023-11-22T12:34:11;3.60;;;2.65;;
40256;SDS011;25977;45.462;9.210;2023-11-22T12:36:41;2.45;;;2.25;;
40256;SDS011;25977;45.462;9.210;2023-11-22T12:39:08;3.13;;;2.40;;
40256;SDS011;25977;45.462;9.210;2023-11-22T12:41:41;1.40;;;1.23;;
40256;SDS011;25977;45.462;9.210;2023-11-22T12:44:14;5.05;;;1.92;;
40256;SDS011;25977;45.462;9.210;2023-11-22T12:46:49;4.03;;;2.00;;
40256;SDS011;25977;45.462;9.210;2023-11-22T12:49:22;2.75;;;1.70;;
40256;SDS011;25977;45.462;9.210;2023-11-22T12:51:53;2.45;;;2.08;;
40256;SDS011;25977;45.462;9.210;2023-11-22T12:54:19;3.17;;;2.35;;
40256;SDS011;25977;45.462;9.210;2023-11-22T12:56:52;1.90;;;1.77;;
40256;SDS011;25977;45.462;9.210;2023-11-22T12:59:25;1.65;;;1.40;;
40256;SDS011;25977;45.462;9.210;2023-11-22T13:01:55;1.98;;;1.60;;
40256;SDS011;25977;45.462;9.210;2023-11-22T13:04:22;2.40;;;2.20;;
40256;SDS011;25977;45.462;9.210;2023-11-22T13:06:48;2.50;;;2.08;;
40256;SDS011;25977;45.462;9.210;2023-11-22T13:09:14;1.50;;;1.17;;
40256;SDS011;25977;45.462;9.210;2023-11-22T13:11:41;2.60;;;1.80;;
40256;SDS011;25977;45.462;9.210;2023-11-22T13:14:08;1.80;;;1.70;;
40256;SDS011;25977;45.462;9.210;2023-11-22T13:16:34;1.95;;;1.85;;
40256;SDS011;25977;45.462;9.210;2023-11-22T13:19:02;2.83;;;1.67;;
40256;SDS011;25977;45.462;9.210;2023-11-22T13:21:29;1.60;;;1.50;;
40256;SDS011;25977;45.462;9.210;2023-11-22T13:23:56;2.65;;;1.98;;
40256;SDS011;25977;45.462;9.210;2023-11-22T13:26:24;1.70;;;1.60;;
40256;SDS011;25977;45.462;9.210;2023-11-22T13:28:51;1.75;;;1.42;;
40256;SDS011;25977;45.462;9.210;2023-11-22T13:31:18;1.50;;;1.40;;
40256;SDS011;25977;45.462;9.210;2023-11-22T13:33:43;3.25;;;1.33;;
40256;SDS011;25977;45.462;9.210;2023-11-22T13:36:12;1.48;;;1.40;;
40256;SDS011;25977;45.462;9.210;2023-11-22T13:38:39;1.38;;;1.27;;
40256;SDS011;25977;45.462;9.210;2023-11-22T13:41:05;2.80;;;1.52;;
40256;SDS011;25977;45.462;9.210;2023-11-22T13:43:31;1.50;;;1.40;;
40256;SDS011;25977;45.462;9.210;2023-11-22T13:45:58;3.78;;;1.75;;
40256;SDS011;25977;45.462;9.210;2023-11-22T13:48:24;1.52;;;1.42;;
40256;SDS011;25977;45.462;9.210;2023-11-22T13:50:50;1.58;;;1.40;;
40256;SDS011;25977;45.462;9.210;2023-11-22T13:53:16;1.67;;;1.17;;
40256;SDS011;25977;45.462;9.210;2023-11-22T13:55:46;1.92;;;1.48;;
40256;SDS011;25977;45.462;9.210;2023-11-22T13:58:12;1.85;;;1.75;;
40256;SDS011;25977;45.462;9.210;2023-11-22T14:00:38;2.33;;;2.13;;
40256;SDS011;25977;45.462;9.210;2023-11-22T14:03:04;1.88;;;1.77;;
40256;SDS011;25977;45.462;9.210;2023-11-22T14:05:33;2.83;;;1.65;;
40256;SDS011;25977;45.462;9.210;2023-11-22T14:08:03;4.40;;;1.60;;
40256;SDS011;25977;45.462;9.210;2023-11-22T14:10:29;3.97;;;1.85;;
40256;SDS011;25977;45.462;9.210;2023-11-22T14:12:55;2.40;;;2.03;;
40256;SDS011;25977;45.462;9.210;2023-11-22T14:15:25;4.20;;;1.60;;
40256;SDS011;25977;45.462;9.210;2023-11-22T14:17:53;2.55;;;2.35;;
40256;SDS011;25977;45.462;9.210;2023-11-22T14:20:19;2.38;;;2.17;;
40256;SDS011;25977;45.462;9.210;2023-11-22T14:22:46;2.67;;;2.45;;
40256;SDS011;25977;45.462;9.210;2023-11-22T14:25:13;2.88;;;2.58;;
40256;SDS011;25977;45.462;9.210;2023-11-22T14:27:44;2.63;;;1.95;;
40256;SDS011;25977;45.462;9.210;2023-11-22T14:30:11;3.33;;;2.38;;
40256;SDS011;25977;45.462;9.210;2023-11-22T14:32:42;1.92;;;1.83;;
40256;SDS011;25977;45.462;9.210;2023-11-22T14:35:09;2.30;;;2.10;;